Time;durP1;ratioP1;P1;durP2;ratioP2;P2;SDS_P1;SDS_P2;PMS_P1;PMS_P2;Temp;Humidity;BMP_temperature;BMP_pressure;BME280_temperature;BME280_humidity;BME280_pressure;Samples;Min_cycle;Max_cycle;Signal;HPM_P1;HPM_P2
2022/04/12 00:01:36;;;;;;;4.65;3.03;;;;;;;;;;5013469;28;20057;-38
2022/04/12 00:04:03;;;;;;;3.72;2.20;;;;;;;;;;5013498;28;20092;-37
2022/04/12 00:06:28;;;;;;;5.15;2.70;;;;;;;;;;5013762;28;20030;-37
2022/04/12 00:08:54;;;;;;;9.35;2.78;;;;;;;;;;5013971;28;20022;-37
2022/04/12 00:11:19;;;;;;;3.15;2.40;;;;;;;;;;5013932;28;20062;-37
2022/04/12 00:13:45;;;;;;;3.35;2.20;;;;;;;;;;5013633;28;20030;-37
2022/04/12 00:16:11;;;;;;;2.88;2.38;;;;;;;;;;5013556;28;20075;-38
2022/04/12 00:21:20;;;;;;;3.75;2.33;;;;;;;;;;5013564;28;20112;-37
2022/04/12 00:23:46;;;;;;;3.58;2.22;;;;;;;;;;5013665;28;20494;-37
2022/04/12 00:26:13;;;;;;;6.38;2.28;;;;;;;;;;5013643;28;20064;-37
2022/04/12 00:28:40;;;;;;;4.45;2.65;;;;;;;;;;5013643;28;20093;-37
2022/04/12 00:31:06;;;;;;;4.47;2.70;;;;;;;;;;5013543;28;20026;-37
2022/04/12 00:33:31;;;;;;;4.30;2.35;;;;;;;;;;5013209;28;20364;-37
2022/04/12 00:36:00;;;;;;;2.75;2.35;;;;;;;;;;5013429;28;20030;-37
2022/04/12 00:38:27;;;;;;;4.63;2.55;;;;;;;;;;5013400;28;20071;-37
2022/04/12 00:40:56;;;;;;;3.17;2.35;;;;;;;;;;5013400;28;20077;-37
2022/04/12 00:43:27;;;;;;;5.60;2.90;;;;;;;;;;5012968;28;20026;-37
2022/04/12 00:45:52;;;;;;;2.63;2.33;;;;;;;;;;5013040;28;20061;-37
2022/04/12 00:48:17;;;;;;;3.03;2.30;;;;;;;;;;5013272;28;20053;-38
2022/04/12 00:50:46;;;;;;;1.95;1.50;;;;;;;;;;5012854;28;20103;-37
2022/04/12 00:53:12;;;;;;;4.15;2.38;;;;;;;;;;5013187;28;20052;-37
2022/04/12 00:55:38;;;;;;;3.25;2.47;;;;;;;;;;5012894;28;20092;-38
2022/04/12 00:58:07;;;;;;;3.30;2.08;;;;;;;;;;5012806;28;20042;-37
2022/04/12 01:00:34;;;;;;;4.28;3.28;;;;;;;;;;5013087;28;20057;-38
2022/04/12 01:03:01;;;;;;;4.53;2.63;;;;;;;;;;5013009;28;20091;-37
2022/04/12 01:05:27;;;;;;;3.10;2.53;;;;;;;;;;5013094;28;20030;-37
2022/04/12 01:07:53;;;;;;;4.95;3.78;;;;;;;;;;5013040;28;20489;-37
2022/04/12 01:10:19;;;;;;;3.60;2.05;;;;;;;;;;5012696;28;20022;-37
2022/04/12 01:12:46;;;;;;;6.32;2.60;;;;;;;;;;5012961;28;20026;-37
2022/04/12 01:15:22;;;;;;;3.25;2.35;;;;;;;;;;5013028;28;20087;-37
2022/04/12 01:17:49;;;;;;;5.70;2.30;;;;;;;;;;5012959;28;20061;-37
2022/04/12 01:20:17;;;;;;;5.65;2.42;;;;;;;;;;5012682;28;20104;-37
2022/04/12 01:23:14;;;;;;;6.28;2.88;;;;;;;;;;5012587;28;20025;-37
2022/04/12 01:25:40;;;;;;;5.28;2.53;;;;;;;;;;5012910;28;20076;-37
2022/04/12 01:28:07;;;;;;;5.63;3.20;;;;;;;;;;5012533;28;20025;-38
2022/04/12 01:30:33;;;;;;;4.80;2.80;;;;;;;;;;5012824;28;20037;-38
2022/04/12 01:32:59;;;;;;;2.70;2.30;;;;;;;;;;5012454;28;20382;-38
2022/04/12 01:35:24;;;;;;;3.92;2.78;;;;;;;;;;5012750;28;20022;-38
2022/04/12 01:37:50;;;;;;;2.88;2.10;;;;;;;;;;4995294;28;20022;-38
2022/04/12 01:40:15;;;;;;;1.50;1.00;;;;;;;;;;4995139;28;20730;-37
2022/04/12 01:42:41;;;;;;;3.08;2.45;;;;;;;;;;5012349;28;20030;-39
2022/04/12 01:45:07;;;;;;;3.38;2.25;;;;;;;;;;5012374;28;20467;-37
2022/04/12 01:47:33;;;;;;;4.70;2.72;;;;;;;;;;5012344;28;20504;-37
2022/04/12 01:49:59;;;;;;;1.67;1.58;;;;;;;;;;5012369;28;20026;-37
2022/04/12 01:52:24;;;;;;;1.20;1.10;;;;;;;;;;5012605;28;20022;-37
2022/04/12 01:54:50;;;;;;;1.80;1.70;;;;;;;;;;5012334;28;20045;-37
2022/04/12 01:57:16;;;;;;;5.47;4.45;;;;;;;;;;5012285;28;20092;-37
2022/04/12 01:59:42;;;;;;;6.22;4.72;;;;;;;;;;5012143;28;20030;-36
2022/04/12 02:02:09;;;;;;;8.50;4.82;;;;;;;;;;5013695;28;20140;-37
2022/04/12 02:04:35;;;;;;;10.98;5.80;;;;;;;;;;5015975;28;20482;-37
2022/04/12 02:07:00;;;;;;;12.48;6.82;;;;;;;;;;5016229;28;20079;-37
2022/04/12 02:09:26;;;;;;;7.35;4.28;;;;;;;;;;5015858;28;20529;-37
2022/04/12 02:11:53;;;;;;;2.95;2.75;;;;;;;;;;5015865;28;20141;-39
2022/04/12 02:14:19;;;;;;;1.52;1.45;;;;;;;;;;5015884;28;20060;-36
2022/04/12 02:16:44;;;;;;;3.60;3.30;;;;;;;;;;5016094;28;20030;-37
2022/04/12 02:19:10;;;;;;;3.03;2.80;;;;;;;;;;5016011;28;20401;-37
2022/04/12 02:21:36;;;;;;;8.82;4.47;;;;;;;;;;5015989;28;20022;-37
2022/04/12 02:24:01;;;;;;;2.05;1.95;;;;;;;;;;5015562;28;20034;-37
2022/04/12 02:26:27;;;;;;;4.00;2.38;;;;;;;;;;5015893;28;20073;-37
2022/04/12 02:28:53;;;;;;;14.65;9.57;;;;;;;;;;5015912;28;20030;-37
2022/04/12 02:31:18;;;;;;;2.35;2.17;;;;;;;;;;5015578;28;20061;-37
2022/04/12 02:33:43;;;;;;;8.73;5.20;;;;;;;;;;5015747;28;20026;-37
2022/04/12 02:36:09;;;;;;;3.45;2.88;;;;;;;;;;5015461;28;20030;-37
2022/04/12 02:38:34;;;;;;;5.20;4.07;;;;;;;;;;5015701;28;20029;-37
2022/04/12 02:41:00;;;;;;;9.45;6.03;;;;;;;;;;5015630;28;20037;-37
2022/04/12 02:43:25;;;;;;;9.73;6.65;;;;;;;;;;5015266;28;20033;-37
2022/04/12 02:45:52;;;;;;;11.98;7.03;;;;;;;;;;5015240;28;20045;-37
2022/04/12 02:48:17;;;;;;;13.98;8.25;;;;;;;;;;5015620;28;20029;-37
2022/04/12 02:50:43;;;;;;;12.82;7.88;;;;;;;;;;5015181;28;20038;-37
2022/04/12 02:53:08;;;;;;;6.50;4.35;;;;;;;;;;5015430;28;20030;-37
2022/04/12 02:55:34;;;;;;;2.13;1.98;;;;;;;;;;5015056;28;20134;-38
2022/04/12 02:58:00;;;;;;;1.05;1.02;;;;;;;;;;5015131;28;20112;-37
2022/04/12 03:00:25;;;;;;;7.07;4.50;;;;;;;;;;5015253;28;20022;-37
2022/04/12 03:02:51;;;;;;;10.88;6.00;;;;;;;;;;5015192;28;20549;-37
2022/04/12 03:05:16;;;;;;;2.08;1.85;;;;;;;;;;5014915;28;20026;-37
2022/04/12 03:07:42;;;;;;;2.28;1.70;;;;;;;;;;5015185;28;20394;-38
2022/04/12 03:10:07;;;;;;;2.25;2.08;;;;;;;;;;5014919;28;20053;-37
2022/04/12 03:12:33;;;;;;;1.85;0.85;;;;;;;;;;5014541;28;20061;-37
2022/04/12 03:14:59;;;;;;;1.65;1.17;;;;;;;;;;5013986;28;20026;-37
2022/04/12 03:17:25;;;;;;;3.45;2.72;;;;;;;;;;5015084;28;20386;-37
2022/04/12 03:19:51;;;;;;;6.15;3.53;;;;;;;;;;5014685;28;20030;-37
2022/04/12 03:22:16;;;;;;;1.75;1.65;;;;;;;;;;5014856;28;20029;-37
2022/04/12 03:24:41;;;;;;;4.03;2.85;;;;;;;;;;5014830;28;20025;-37
2022/04/12 03:27:07;;;;;;;4.78;3.58;;;;;;;;;;5014811;28;20382;-37
2022/04/12 03:29:32;;;;;;;2.60;2.38;;;;;;;;;;5014418;28;20033;-37
2022/04/12 03:31:59;;;;;;;0.32;0.32;;;;;;;;;;5014680;28;20057;-37
2022/04/12 03:34:24;;;;;;;0.88;0.88;;;;;;;;;;5014365;28;20022;-38
2022/04/12 03:36:50;;;;;;;0.85;0.85;;;;;;;;;;5014314;28;20030;-38
2022/04/12 03:39:18;;;;;;;1.83;1.73;;;;;;;;;;5014481;28;20030;-38
2022/04/12 03:41:48;;;;;;;6.57;1.85;;;;;;;;;;5014194;28;20140;-37
2022/04/12 03:44:15;;;;;;;1.55;1.45;;;;;;;;;;5014122;28;20041;-37
2022/04/12 03:46:41;;;;;;;0.85;0.85;;;;;;;;;;5014176;28;20479;-37
2022/04/12 03:49:06;;;;;;;1.00;0.68;;;;;;;;;;5014121;28;20033;-37
2022/04/12 03:51:32;;;;;;;0.75;0.75;;;;;;;;;;5014075;28;20028;-37
2022/04/12 03:53:58;;;;;;;5.82;3.78;;;;;;;;;;5014236;28;20101;-37
2022/04/12 03:56:23;;;;;;;0.65;0.52;;;;;;;;;;5013850;28;20383;-37
2022/04/12 03:58:49;;;;;;;1.33;1.27;;;;;;;;;;5014179;28;20030;-37
2022/04/12 04:01:14;;;;;;;2.28;2.05;;;;;;;;;;5014145;28;20526;-37
2022/04/12 04:03:40;;;;;;;0.98;0.93;;;;;;;;;;5014068;28;20100;-37
2022/04/12 04:06:06;;;;;;;2.15;2.05;;;;;;;;;;5014058;28;20018;-37
2022/04/12 04:08:32;;;;;;;1.60;1.50;;;;;;;;;;5013872;28;20481;-37
2022/04/12 04:10:57;;;;;;;10.15;4.45;;;;;;;;;;5013937;28;20416;-37
2022/04/12 04:13:24;;;;;;;3.97;3.58;;;;;;;;;;5013593;28;20118;-36
2022/04/12 04:15:50;;;;;;;6.07;5.40;;;;;;;;;;5013878;28;20076;-38
2022/04/12 04:18:16;;;;;;;0.80;0.80;;;;;;;;;;5013419;28;20101;-37
2022/04/12 04:20:42;;;;;;;4.03;2.63;;;;;;;;;;5013747;28;20029;-36
2022/04/12 04:23:09;;;;;;;1.58;1.48;;;;;;;;;;5013410;28;20075;-37
2022/04/12 04:25:34;;;;;;;2.72;2.45;;;;;;;;;;5013261;28;20055;-38
2022/04/12 04:28:00;;;;;;;5.85;4.03;;;;;;;;;;5013422;28;20186;-38
2022/04/12 04:30:26;;;;;;;13.70;4.70;;;;;;;;;;5013565;28;20022;-38
2022/04/12 04:32:51;;;;;;;9.02;4.35;;;;;;;;;;5013576;28;20029;-38
2022/04/12 04:35:17;;;;;;;10.43;5.20;;;;;;;;;;5013556;28;20068;-37
2022/04/12 04:37:49;;;;;;;3.65;2.55;;;;;;;;;;5013097;28;20527;-37
2022/04/12 04:40:17;;;;;;;3.25;2.80;;;;;;;;;;5013240;28;20430;-37
2022/04/12 04:42:44;;;;;;;6.68;3.78;;;;;;;;;;5013287;28;20088;-38
2022/04/12 04:45:11;;;;;;;2.78;2.53;;;;;;;;;;5012951;28;20084;-38
2022/04/12 04:47:58;;;;;;;3.20;2.92;;;;;;;;;;5013213;28;20386;-37
2022/04/12 04:50:25;;;;;;;2.10;1.67;;;;;;;;;;5012962;28;20032;-37
2022/04/12 04:52:51;;;;;;;1.48;1.38;;;;;;;;;;5013162;28;20378;-38
2022/04/12 04:55:17;;;;;;;1.95;1.63;;;;;;;;;;5012809;28;20038;-36
2022/04/12 04:57:44;;;;;;;1.88;1.77;;;;;;;;;;5012809;28;20033;-38
2022/04/12 05:00:15;;;;;;;4.05;2.70;;;;;;;;;;5012788;28;20455;-37
2022/04/12 05:02:47;;;;;;;5.57;2.22;;;;;;;;;;5013000;28;20038;-37
2022/04/12 05:05:14;;;;;;;2.20;1.23;;;;;;;;;;5012751;28;20034;-37
2022/04/12 05:07:41;;;;;;;1.23;1.23;;;;;;;;;;5012976;28;20061;-38
2022/04/12 05:10:07;;;;;;;4.13;3.75;;;;;;;;;;5012961;28;20026;-38
2022/04/12 05:12:33;;;;;;;6.15;2.90;;;;;;;;;;5012704;28;20635;-37
2022/04/12 05:14:59;;;;;;;7.55;3.55;;;;;;;;;;5012838;28;20045;-37
2022/04/12 05:17:29;;;;;;;12.25;5.43;;;;;;;;;;5010993;28;20021;-36
2022/04/12 05:19:56;;;;;;;5.95;4.57;;;;;;;;;;5010766;28;20641;-38
2022/04/12 05:22:23;;;;;;;5.68;3.80;;;;;;;;;;5012381;28;20037;-37
2022/04/12 05:24:49;;;;;;;4.45;3.22;;;;;;;;;;5012495;28;20021;-38
2022/04/12 05:27:15;;;;;;;6.38;4.28;;;;;;;;;;5012826;28;20173;-39
2022/04/12 05:29:41;;;;;;;9.27;5.05;;;;;;;;;;5012486;28;20378;-42
2022/04/12 05:32:09;;;;;;;6.95;4.72;;;;;;;;;;5012387;28;20022;-41
2022/04/12 05:34:36;;;;;;;6.47;4.40;;;;;;;;;;5012436;28;20034;-39
2022/04/12 05:37:03;;;;;;;10.70;6.53;;;;;;;;;;5014242;28;20033;-40
2022/04/12 05:39:28;;;;;;;15.77;8.55;;;;;;;;;;5016524;28;20201;-44
2022/04/12 05:41:53;;;;;;;10.05;6.20;;;;;;;;;;5016226;28;20108;-41
2022/04/12 05:44:19;;;;;;;8.02;5.18;;;;;;;;;;5016421;28;20034;-39
2022/04/12 05:46:44;;;;;;;20.70;10.13;;;;;;;;;;5015342;28;20379;-39
2022/04/12 05:49:10;;;;;;;10.30;4.15;;;;;;;;;;5015244;28;20061;-39
2022/04/12 05:51:35;;;;;;;7.90;4.22;;;;;;;;;;5016021;28;20057;-39
2022/04/12 05:54:01;;;;;;;9.90;5.43;;;;;;;;;;5016011;28;20026;-41
2022/04/12 05:56:26;;;;;;;9.90;5.38;;;;;;;;;;5016028;28;20065;-41
2022/04/12 05:58:51;;;;;;;8.52;5.70;;;;;;;;;;5016337;28;20492;-42
2022/04/12 06:01:17;;;;;;;9.00;4.97;;;;;;;;;;5016320;28;20509;-40
2022/04/12 06:03:43;;;;;;;8.35;4.80;;;;;;;;;;5015873;28;20506;-41
2022/04/12 06:06:08;;;;;;;13.30;7.13;;;;;;;;;;5015966;28;20088;-40
2022/04/12 06:08:34;;;;;;;12.02;6.65;;;;;;;;;;5016007;28;20060;-42
2022/04/12 06:11:00;;;;;;;12.13;6.85;;;;;;;;;;4998227;28;20113;-39
2022/04/12 06:13:25;;;;;;;11.73;6.85;;;;;;;;;;5015640;28;20448;-42
2022/04/12 06:15:51;;;;;;;8.68;6.13;;;;;;;;;;5015642;28;20025;-41
2022/04/12 06:18:16;;;;;;;12.02;5.60;;;;;;;;;;5015757;28;20022;-41
2022/04/12 06:20:42;;;;;;;9.70;6.13;;;;;;;;;;5015804;28;20490;-42
2022/04/12 06:23:08;;;;;;;7.82;4.75;;;;;;;;;;5015874;28;20083;-41
2022/04/12 06:25:34;;;;;;;8.98;5.20;;;;;;;;;;5015910;28;20105;-44
2022/04/12 06:27:59;;;;;;;14.63;6.22;;;;;;;;;;4997283;28;20037;-41
2022/04/12 06:30:27;;;;;;;10.65;6.13;;;;;;;;;;5013358;28;20057;-42
2022/04/12 06:32:53;;;;;;;9.40;5.93;;;;;;;;;;5014293;28;20026;-40
2022/04/12 06:35:19;;;;;;;9.57;6.15;;;;;;;;;;5015677;28;20026;-44
2022/04/12 06:37:46;;;;;;;10.93;5.88;;;;;;;;;;5015292;28;20029;-42
2022/04/12 06:40:13;;;;;;;7.80;5.07;;;;;;;;;;5014989;28;20084;-40
2022/04/12 06:42:38;;;;;;;9.25;5.80;;;;;;;;;;5013246;28;20037;-40
2022/04/12 06:45:05;;;;;;;7.20;4.95;;;;;;;;;;5013870;28;20037;-41
2022/04/12 06:47:32;;;;;;;4.00;3.05;;;;;;;;;;5013363;28;20478;-41
2022/04/12 06:49:58;;;;;;;7.53;4.43;;;;;;;;;;5013066;28;20037;-40
2022/04/12 06:52:23;;;;;;;5.85;3.35;;;;;;;;;;5013857;28;20041;-41
2022/04/12 06:54:49;;;;;;;5.05;2.72;;;;;;;;;;5013320;28;20046;-40
2022/04/12 06:57:16;;;;;;;3.97;3.00;;;;;;;;;;5013422;28;20064;-43
2022/04/12 06:59:41;;;;;;;8.35;3.95;;;;;;;;;;5013765;28;20069;-39
2022/04/12 07:02:07;;;;;;;5.93;3.80;;;;;;;;;;5013288;28;20056;-39
2022/04/12 07:04:33;;;;;;;2.90;1.77;;;;;;;;;;5013524;28;20030;-40
2022/04/12 07:06:59;;;;;;;8.85;4.20;;;;;;;;;;5013204;28;20542;-40
2022/04/12 07:09:29;;;;;;;5.00;3.55;;;;;;;;;;5013325;28;20026;-39
2022/04/12 07:11:57;;;;;;;5.07;2.88;;;;;;;;;;5013190;28;20490;-40
2022/04/12 07:14:23;;;;;;;5.50;3.22;;;;;;;;;;5013179;28;20034;-41
2022/04/12 07:16:49;;;;;;;12.88;4.30;;;;;;;;;;5013061;28;20394;-39
2022/04/12 07:19:15;;;;;;;6.45;3.75;;;;;;;;;;5012996;28;20034;-40
2022/04/12 07:21:40;;;;;;;10.50;5.22;;;;;;;;;;5013065;28;20060;-42
2022/04/12 07:24:07;;;;;;;9.57;5.13;;;;;;;;;;5012730;28;20030;-40
2022/04/12 07:26:33;;;;;;;7.78;4.60;;;;;;;;;;5013140;28;20394;-43
2022/04/12 07:28:59;;;;;;;8.63;4.53;;;;;;;;;;5012899;28;20037;-43
2022/04/12 07:31:26;;;;;;;7.03;4.50;;;;;;;;;;5013050;28;20053;-40
2022/04/12 07:33:51;;;;;;;8.95;4.15;;;;;;;;;;5013003;28;20041;-41
2022/04/12 07:36:17;;;;;;;5.53;4.15;;;;;;;;;;5012844;28;20364;-39
2022/04/12 07:38:42;;;;;;;2.85;2.05;;;;;;;;;;5009986;28;20045;-41
2022/04/12 07:41:09;;;;;;;6.60;4.18;;;;;;;;;;5011103;28;20044;-40
2022/04/12 07:43:35;;;;;;;3.85;2.40;;;;;;;;;;4995023;28;20112;-40
2022/04/12 07:46:01;;;;;;;6.10;3.70;;;;;;;;;;5012414;28;20022;-42
2022/04/12 07:48:26;;;;;;;4.05;2.88;;;;;;;;;;5012327;28;20049;-40
2022/04/12 07:50:52;;;;;;;3.85;2.15;;;;;;;;;;5012332;28;20029;-41
2022/04/12 07:53:18;;;;;;;3.60;2.65;;;;;;;;;;5012313;28;20108;-40
2022/04/12 07:55:43;;;;;;;6.85;2.83;;;;;;;;;;5012125;28;20057;-40
2022/04/12 07:58:08;;;;;;;3.50;2.47;;;;;;;;;;5012631;28;20029;-40
2022/04/12 08:00:34;;;;;;;3.10;1.67;;;;;;;;;;5011349;28;20032;-40
2022/04/12 08:02:59;;;;;;;4.68;2.50;;;;;;;;;;5012102;28;20038;-41
2022/04/12 08:05:25;;;;;;;4.03;2.90;;;;;;;;;;5012416;28;20471;-42
2022/04/12 08:07:50;;;;;;;5.25;2.45;;;;;;;;;;5011630;28;20113;-40
2022/04/12 08:10:17;;;;;;;4.18;2.80;;;;;;;;;;5012094;28;20021;-44
2022/04/12 08:12:44;;;;;;;1.75;1.63;;;;;;;;;;5012294;28;20140;-40
2022/04/12 08:15:11;;;;;;;3.33;2.38;;;;;;;;;;5011536;28;20029;-40
2022/04/12 08:17:37;;;;;;;4.70;2.88;;;;;;;;;;4993698;28;20026;-46
2022/04/12 08:20:05;;;;;;;6.32;3.63;;;;;;;;;;5012101;28;20032;-44
2022/04/12 08:22:30;;;;;;;5.35;2.70;;;;;;;;;;5011902;28;20026;-44
2022/04/12 08:24:56;;;;;;;3.00;2.25;;;;;;;;;;5011941;28;20052;-40
2022/04/12 08:27:21;;;;;;;1.42;1.30;;;;;;;;;;5011754;28;20032;-40
2022/04/12 08:29:47;;;;;;;5.80;3.15;;;;;;;;;;5010993;28;20026;-42
2022/04/12 08:32:12;;;;;;;8.90;3.40;;;;;;;;;;5011277;28;20080;-41
2022/04/12 08:34:38;;;;;;;4.75;2.90;;;;;;;;;;5011547;28;20026;-42
2022/04/12 08:37:05;;;;;;;7.90;2.95;;;;;;;;;;5011698;28;20084;-42
2022/04/12 08:39:31;;;;;;;5.32;2.72;;;;;;;;;;5011336;28;20589;-42
2022/04/12 08:42:00;;;;;;;5.90;3.35;;;;;;;;;;5011893;28;20030;-48
2022/04/12 08:44:26;;;;;;;3.88;2.70;;;;;;;;;;5011199;28;20083;-40
2022/04/12 08:46:56;;;;;;;3.80;2.80;;;;;;;;;;5011649;28;20033;-45
2022/04/12 08:49:23;;;;;;;5.23;3.57;;;;;;;;;;5011312;28;20028;-42
2022/04/12 08:51:49;;;;;;;3.92;2.67;;;;;;;;;;5011332;28;20427;-41
2022/04/12 08:54:17;;;;;;;4.38;2.70;;;;;;;;;;5011660;28;20394;-40
2022/04/12 08:56:44;;;;;;;4.00;2.22;;;;;;;;;;5011097;28;20046;-44
2022/04/12 08:59:10;;;;;;;3.10;1.55;;;;;;;;;;5011427;28;20111;-40
2022/04/12 09:01:35;;;;;;;5.78;3.08;;;;;;;;;;5011133;28;20018;-40
2022/04/12 09:04:01;;;;;;;5.10;2.45;;;;;;;;;;5011000;28;20030;-46
2022/04/12 09:06:26;;;;;;;4.45;2.85;;;;;;;;;;5011344;28;20026;-43
2022/04/12 09:08:51;;;;;;;2.95;2.10;;;;;;;;;;5011566;28;20488;-41
2022/04/12 09:11:17;;;;;;;5.00;2.92;;;;;;;;;;5008537;28;20029;-40
2022/04/12 09:13:59;;;;;;;3.67;2.60;;;;;;;;;;5004679;28;20140;-41
2022/04/12 09:16:25;;;;;;;6.07;3.22;;;;;;;;;;5010441;28;20137;-44
2022/04/12 09:18:51;;;;;;;18.48;3.38;;;;;;;;;;5011049;28;20245;-42
2022/04/12 09:21:22;;;;;;;4.22;2.53;;;;;;;;;;5010927;28;20029;-42
2022/04/12 09:23:52;;;;;;;2.70;2.00;;;;;;;;;;5011186;28;20026;-41
2022/04/12 09:26:24;;;;;;;5.03;3.30;;;;;;;;;;5010354;28;20034;-42
2022/04/12 09:28:51;;;;;;;3.53;2.10;;;;;;;;;;5011165;28;20085;-41
2022/04/12 09:31:18;;;;;;;5.50;2.70;;;;;;;;;;5010859;28;20124;-40
2022/04/12 09:33:46;;;;;;;3.50;2.00;;;;;;;;;;5010776;28;20022;-41
2022/04/12 09:36:12;;;;;;;3.17;2.50;;;;;;;;;;5010947;28;20152;-44
2022/04/12 09:38:39;;;;;;;4.60;2.60;;;;;;;;;;5010880;28;20105;-42
2022/04/12 09:41:18;;;;;;;3.90;2.65;;;;;;;;;;5010881;28;20026;-43
2022/04/12 09:43:50;;;;;;;1.85;1.65;;;;;;;;;;5010793;28;20475;-41
2022/04/12 09:46:16;;;;;;;4.80;2.42;;;;;;;;;;5010401;28;20029;-41
2022/04/12 09:48:46;;;;;;;4.05;2.22;;;;;;;;;;5011146;28;20048;-41
2022/04/12 09:51:13;;;;;;;2.97;1.90;;;;;;;;;;5011024;28;20037;-43
2022/04/12 09:53:40;;;;;;;2.72;2.22;;;;;;;;;;5010243;28;20041;-42
2022/04/12 09:56:25;;;;;;;3.83;2.35;;;;;;;;;;5010347;28;20050;-42
2022/04/12 09:58:53;;;;;;;2.60;1.95;;;;;;;;;;5010741;28;20084;-45
2022/04/12 10:01:19;;;;;;;3.45;1.92;;;;;;;;;;5010404;28;20026;-42
2022/04/12 10:03:58;;;;;;;7.63;4.75;;;;;;;;;;5010850;28;20026;-42
2022/04/12 10:06:25;;;;;;;3.00;2.30;;;;;;;;;;5010896;28;20057;-42
2022/04/12 10:09:00;;;;;;;5.63;2.33;;;;;;;;;;5010522;28;20060;-43
2022/04/12 10:11:26;;;;;;;2.35;2.10;;;;;;;;;;5008498;28;20029;-40
2022/04/12 10:13:52;;;;;;;4.28;2.25;;;;;;;;;;5010844;28;20033;-44
2022/04/12 10:16:22;;;;;;;3.40;1.92;;;;;;;;;;5009840;28;20037;-40
2022/04/12 10:18:49;;;;;;;3.70;2.38;;;;;;;;;;5010973;28;20429;-41
2022/04/12 10:21:15;;;;;;;2.40;2.05;;;;;;;;;;5008007;28;20030;-40
2022/04/12 10:23:48;;;;;;;3.75;2.00;;;;;;;;;;5012772;28;20065;-41
2022/04/12 10:26:20;;;;;;;2.63;2.00;;;;;;;;;;5013696;28;20554;-44
2022/04/12 10:28:52;;;;;;;4.22;2.00;;;;;;;;;;5013804;28;20038;-43
2022/04/12 10:31:20;;;;;;;2.17;1.90;;;;;;;;;;5014053;28;20030;-42
2022/04/12 10:34:02;;;;;;;4.22;2.42;;;;;;;;;;5014240;28;20048;-42
2022/04/12 10:37:07;;;;;;;2.15;1.95;;;;;;;;;;5013938;28;20109;-47
2022/04/12 10:39:42;;;;;;;4.63;2.20;;;;;;;;;;5014097;28;20774;-43
2022/04/12 10:42:11;;;;;;;3.92;2.55;;;;;;;;;;5013867;28;20021;-44
2022/04/12 10:44:50;;;;;;;4.68;2.30;;;;;;;;;;5013646;28;20113;-43
2022/04/12 10:47:35;;;;;;;3.03;2.38;;;;;;;;;;5013921;28;20022;-40
2022/04/12 10:50:07;;;;;;;2.60;1.95;;;;;;;;;;5013858;28;20053;-44
2022/04/12 10:52:35;;;;;;;4.60;2.40;;;;;;;;;;5013369;28;20045;-41
2022/04/12 10:55:06;;;;;;;2.80;2.00;;;;;;;;;;5012769;28;20053;-42
2022/04/12 10:57:32;;;;;;;2.90;2.40;;;;;;;;;;5013647;28;20036;-41
2022/04/12 11:00:01;;;;;;;4.88;2.25;;;;;;;;;;5013225;28;20132;-42
2022/04/12 11:02:46;;;;;;;2.78;2.17;;;;;;;;;;5013244;28;20032;-39
2022/04/12 11:05:33;;;;;;;2.67;2.05;;;;;;;;;;5013503;28;20026;-43
2022/04/12 11:07:59;;;;;;;4.28;2.28;;;;;;;;;;5013483;28;20385;-43
2022/04/12 11:10:25;;;;;;;1.90;1.42;;;;;;;;;;5013183;28;20149;-40
2022/04/12 11:13:04;;;;;;;2.53;2.03;;;;;;;;;;5013044;28;20038;-40
2022/04/12 11:15:31;;;;;;;5.07;2.27;;;;;;;;;;5013153;28;20424;-42
2022/04/12 11:18:16;;;;;;;4.07;2.03;;;;;;;;;;5012936;28;20337;-42
2022/04/12 11:20:57;;;;;;;2.67;2.15;;;;;;;;;;5012890;28;20041;-41
2022/04/12 11:23:59;;;;;;;1.95;1.58;;;;;;;;;;5012947;28;20030;-40
2022/04/12 11:26:38;;;;;;;4.13;1.80;;;;;;;;;;5012790;28;20022;-40
2022/04/12 11:29:08;;;;;;;3.97;1.98;;;;;;;;;;5012965;28;20486;-42
2022/04/12 11:31:37;;;;;;;;;;;;;;;;;;5013177;28;20038;-41
2022/04/12 11:34:06;;;;;;;1.42;1.33;;;;;;;;;;5010550;28;20543;-39
2022/04/12 11:36:32;;;;;;;3.50;1.20;;;;;;;;;;5012662;28;20106;-39
2022/04/12 11:38:58;;;;;;;1.60;1.35;;;;;;;;;;5012700;28;20091;-41
2022/04/12 11:41:23;;;;;;;4.35;1.85;;;;;;;;;;5012791;28;20109;-40
2022/04/12 11:44:01;;;;;;;2.40;1.98;;;;;;;;;;5012850;28;20030;-42
2022/04/12 11:46:29;;;;;;;2.03;1.80;;;;;;;;;;5012667;28;20069;-42
2022/04/12 11:49:03;;;;;;;4.22;2.60;;;;;;;;;;5012065;28;20505;-40
2022/04/12 11:51:29;;;;;;;4.97;2.67;;;;;;;;;;5012759;28;20069;-42
2022/04/12 11:53:54;;;;;;;3.40;2.20;;;;;;;;;;5012421;28;20435;-40
2022/04/12 11:56:20;;;;;;;4.57;2.50;;;;;;;;;;5012217;28;20103;-43
2022/04/12 11:58:45;;;;;;;3.67;2.10;;;;;;;;;;5012555;28;20057;-40
2022/04/12 12:01:13;;;;;;;3.20;2.10;;;;;;;;;;5012590;28;20599;-41
2022/04/12 12:03:41;;;;;;;4.72;2.00;;;;;;;;;;5011546;28;20030;-41
2022/04/12 12:06:08;;;;;;;3.55;2.40;;;;;;;;;;5012189;28;20583;-43
2022/04/12 12:08:34;;;;;;;3.28;1.98;;;;;;;;;;5012230;28;20112;-43
2022/04/12 12:11:09;;;;;;;1.98;1.48;;;;;;;;;;5012286;28;20153;-41
2022/04/12 12:13:35;;;;;;;5.00;1.48;;;;;;;;;;5012562;28;20087;-41
2022/04/12 12:16:00;;;;;;;2.13;1.58;;;;;;;;;;5012227;28;20423;-40
2022/04/12 12:18:26;;;;;;;3.30;1.98;;;;;;;;;;5012080;28;20467;-46
2022/04/12 12:20:51;;;;;;;3.17;2.30;;;;;;;;;;5012159;28;20096;-47
2022/04/12 12:23:17;;;;;;;1.10;1.00;;;;;;;;;;4994331;28;20116;-42
2022/04/12 12:25:46;;;;;;;2.20;1.90;;;;;;;;;;5011829;28;20386;-43
2022/04/12 12:28:20;;;;;;;3.25;2.00;;;;;;;;;;5011945;28;20025;-40
2022/04/12 12:30:48;;;;;;;5.30;1.95;;;;;;;;;;4994270;28;20026;-42
2022/04/12 12:33:14;;;;;;;2.88;1.98;;;;;;;;;;5011911;28;20026;-40
2022/04/12 12:35:45;;;;;;;0.90;0.90;;;;;;;;;;5012112;28;20033;-40
2022/04/12 12:38:15;;;;;;;2.50;1.98;;;;;;;;;;5012012;28;20382;-42
2022/04/12 12:40:42;;;;;;;2.95;2.10;;;;;;;;;;5011696;28;20034;-42
2022/04/12 12:43:13;;;;;;;4.05;2.20;;;;;;;;;;5011648;28;20048;-41
2022/04/12 12:45:45;;;;;;;4.03;1.67;;;;;;;;;;5011192;28;20041;-41
2022/04/12 12:48:13;;;;;;;11.80;8.32;;;;;;;;;;5011385;28;20022;-42
2022/04/12 12:50:40;;;;;;;2.83;2.03;;;;;;;;;;5011489;28;20068;-38
2022/04/12 12:53:10;;;;;;;4.10;2.03;;;;;;;;;;5011501;28;20029;-41
2022/04/12 12:55:39;;;;;;;3.15;2.20;;;;;;;;;;5011047;28;20570;-41
2022/04/12 12:58:13;;;;;;;3.75;2.22;;;;;;;;;;5011114;28;20592;-38
2022/04/12 13:00:39;;;;;;;4.68;2.85;;;;;;;;;;5011287;28;20038;-42
2022/04/12 13:03:09;;;;;;;3.25;2.28;;;;;;;;;;5011443;28;20033;-40
2022/04/12 13:05:37;;;;;;;2.58;2.00;;;;;;;;;;4993577;28;20108;-40
2022/04/12 13:08:04;;;;;;;2.50;2.10;;;;;;;;;;5011452;28;20022;-39
2022/04/12 13:10:35;;;;;;;5.47;2.15;;;;;;;;;;4993872;28;20022;-41
2022/04/12 13:13:00;;;;;;;2.20;1.77;;;;;;;;;;5011167;28;20037;-44
2022/04/12 13:15:26;;;;;;;3.72;2.13;;;;;;;;;;5010913;28;20105;-39
2022/04/12 13:17:52;;;;;;;2.53;2.13;;;;;;;;;;5011297;28;20033;-41
2022/04/12 13:20:18;;;;;;;2.70;1.95;;;;;;;;;;5011306;28;20093;-42
2022/04/12 13:22:45;;;;;;;3.85;2.00;;;;;;;;;;5011039;28;20044;-40
2022/04/12 13:25:20;;;;;;;1.92;1.50;;;;;;;;;;5010348;28;20026;-44
2022/04/12 13:27:52;;;;;;;1.83;1.67;;;;;;;;;;5011225;28;20390;-47
2022/04/12 13:30:20;;;;;;;2.97;1.98;;;;;;;;;;5011132;28;20113;-44
2022/04/12 13:32:46;;;;;;;4.95;2.08;;;;;;;;;;5010920;28;20422;-44
2022/04/12 13:35:15;;;;;;;2.55;1.90;;;;;;;;;;5010867;28;20030;-44
2022/04/12 13:37:41;;;;;;;1.60;1.50;;;;;;;;;;5010865;28;20034;-40
2022/04/12 13:40:07;;;;;;;1.40;1.30;;;;;;;;;;5010886;28;20030;-41
2022/04/12 13:42:34;;;;;;;4.07;2.53;;;;;;;;;;5010605;28;20034;-42
2022/04/12 13:44:59;;;;;;;1.00;1.00;;;;;;;;;;5010858;28;20506;-47
2022/04/12 13:47:25;;;;;;;4.03;1.30;;;;;;;;;;5011069;28;20037;-43
2022/04/12 13:49:50;;;;;;;3.30;1.88;;;;;;;;;;5011122;28;20049;-41
2022/04/12 13:52:16;;;;;;;5.55;1.95;;;;;;;;;;5010904;28;20394;-39
2022/04/12 13:54:42;;;;;;;2.38;1.85;;;;;;;;;;5010529;28;20021;-40
2022/04/12 13:57:08;;;;;;;3.03;1.35;;;;;;;;;;5011065;28;20022;-46
2022/04/12 13:59:34;;;;;;;3.97;1.52;;;;;;;;;;5014460;28;20174;-40
2022/04/12 14:01:59;;;;;;;1.60;1.20;;;;;;;;;;5014021;28;20022;-39
2022/04/12 14:04:25;;;;;;;2.83;1.77;;;;;;;;;;5014275;28;20038;-41
2022/04/12 14:06:51;;;;;;;3.08;1.92;;;;;;;;;;5014535;28;20343;-44
2022/04/12 14:09:16;;;;;;;7.60;1.80;;;;;;;;;;5014450;28;20030;-40
2022/04/12 14:11:42;;;;;;;3.53;1.83;;;;;;;;;;5014654;28;20030;-40
2022/04/12 14:14:11;;;;;;;3.92;2.28;;;;;;;;;;5014592;28;20068;-41
2022/04/12 14:16:38;;;;;;;2.38;1.80;;;;;;;;;;5014630;28;20026;-42
2022/04/12 14:19:04;;;;;;;3.28;2.55;;;;;;;;;;5014294;28;20482;-42
2022/04/12 14:21:30;;;;;;;2.58;1.90;;;;;;;;;;4996716;28;20030;-41
2022/04/12 14:23:55;;;;;;;2.65;1.80;;;;;;;;;;4991868;28;20029;-44
2022/04/12 14:26:21;;;;;;;2.22;1.27;;;;;;;;;;5008158;28;20041;-40
2022/04/12 14:28:46;;;;;;;3.20;1.63;;;;;;;;;;5013250;28;20095;-43
2022/04/12 14:31:12;;;;;;;3.30;2.00;;;;;;;;;;5013952;28;20033;-40
2022/04/12 14:33:38;;;;;;;3.15;1.75;;;;;;;;;;5013367;28;20113;-43
2022/04/12 14:36:07;;;;;;;1.83;1.45;;;;;;;;;;5014279;28;20056;-40
2022/04/12 14:38:33;;;;;;;6.63;2.15;;;;;;;;;;5013824;28;20347;-45
2022/04/12 14:40:58;;;;;;;2.33;1.38;;;;;;;;;;5013853;28;20028;-45
2022/04/12 14:43:25;;;;;;;2.33;1.60;;;;;;;;;;5013782;28;20105;-51
2022/04/12 14:45:51;;;;;;;1.95;1.60;;;;;;;;;;5013345;28;20534;-46
2022/04/12 14:48:17;;;;;;;2.33;1.50;;;;;;;;;;4996156;28;20041;-40